createdAt,value
2022-11-18T00:00:21.613Z,99127.84
2022-11-18T00:01:01.563Z,99114.75
2022-11-18T00:01:41.649Z,99113.31
2022-11-18T00:02:22.577Z,99105.97
2022-11-18T00:03:02.645Z,99123.78
2022-11-18T00:03:44.515Z,99119.44
2022-11-18T00:04:24.674Z,99122.00
2022-11-18T00:05:04.543Z,99117.41
2022-11-18T00:05:44.646Z,99121.44
2022-11-18T00:06:30.548Z,99116.97
2022-11-18T00:07:10.746Z,99123.47
2022-11-18T00:07:50.525Z,99108.91
2022-11-18T00:08:31.707Z,99111.31
2022-11-18T00:09:11.576Z,99117.94
2022-11-18T00:09:51.800Z,99126.03
2022-11-18T00:10:31.545Z,99114.63
2022-11-18T00:11:48.582Z,99117.47
2022-11-18T00:13:00.498Z,99118.19
2022-11-18T00:14:12.560Z,99104.47
2022-11-18T00:15:06.562Z,99128.16
2022-11-18T00:16:00.532Z,99125.94
2022-11-18T00:16:54.557Z,99126.16
2022-11-18T00:17:48.574Z,99104.97
2022-11-18T00:18:42.586Z,99124.41
2022-11-18T00:19:43.537Z,99122.44
2022-11-18T00:20:37.493Z,99113.59
2022-11-18T00:21:31.569Z,99101.69
2022-11-18T00:22:19.624Z,99116.44
2022-11-18T00:22:53.629Z,99116.44
2022-11-18T00:23:40.555Z,99107.28
2022-11-18T00:24:14.626Z,99118.13
2022-11-18T00:25:01.488Z,99121.31
2022-11-18T00:25:35.566Z,99117.94
2022-11-18T00:26:22.484Z,99119.97
2022-11-18T00:26:57.696Z,99109.63
2022-11-18T00:27:44.552Z,99106.88
2022-11-18T00:28:18.573Z,99114.88
2022-11-18T00:29:05.552Z,99102.59
2022-11-18T00:29:39.649Z,99107.59
2022-11-18T00:30:26.515Z,99101.28
2022-11-18T00:31:00.545Z,99104.28
2022-11-18T00:31:47.528Z,99116.22
2022-11-18T00:32:21.582Z,99097.75
2022-11-18T00:33:08.534Z,99118.44
2022-11-18T00:33:48.537Z,99104.66
2022-11-18T00:34:28.508Z,99112.34
2022-11-18T00:35:08.566Z,99112.47
2022-11-18T00:35:48.533Z,99107.25
2022-11-18T00:36:29.619Z,99115.78
2022-11-18T00:37:10.537Z,99117.09
2022-11-18T00:37:50.570Z,99123.72
2022-11-18T00:38:31.538Z,99124.56
2022-11-18T00:39:11.581Z,99110.94
2022-11-18T00:39:51.529Z,99122.97
2022-11-18T00:40:31.583Z,99122.75
2022-11-18T00:41:15.499Z,99113.25
2022-11-18T00:42:15.138Z,99116.22
2022-11-18T00:42:58.505Z,99112.06
2022-11-18T00:43:46.567Z,99108.56
2022-11-18T00:44:20.217Z,99108.44
2022-11-18T00:45:07.542Z,99114.03
2022-11-18T00:45:43.817Z,99105.13
2022-11-18T00:46:30.462Z,99105.56
2022-11-18T00:47:04.548Z,99095.56
2022-11-18T00:47:51.524Z,99093.94
2022-11-18T00:48:25.606Z,99097.03
2022-11-18T00:49:05.513Z,99100.22
2022-11-18T00:49:39.526Z,99100.44
2022-11-18T00:50:14.497Z,99087.72
2022-11-18T00:51:00.516Z,99097.53
2022-11-18T00:51:34.587Z,99102.13
2022-11-18T00:52:08.140Z,99090.03
2022-11-18T00:52:48.467Z,99093.09
2022-11-18T00:53:23.651Z,99102.59
2022-11-18T00:53:57.309Z,99103.31
2022-11-18T00:54:38.541Z,99093.72
2022-11-18T00:55:12.513Z,99092.41
2022-11-18T00:55:46.148Z,99089.75
2022-11-18T00:56:26.533Z,99067.84
2022-11-18T00:57:00.660Z,99097.88
2022-11-18T00:57:34.200Z,99094.31
2022-11-18T00:58:14.491Z,99088.97
2022-11-18T00:58:48.579Z,99099.75
2022-11-18T00:59:22.236Z,99074.31
2022-11-18T01:00:03.482Z,99101.34
2022-11-18T01:00:37.590Z,99089.94
2022-11-18T01:01:11.227Z,99096.59
2022-11-18T01:01:51.587Z,99076.75
2022-11-18T01:02:25.656Z,99091.84
2022-11-18T01:02:59.141Z,99086.75
2022-11-18T01:03:39.466Z,99099.41
2022-11-18T01:04:13.576Z,99091.34
2022-11-18T01:04:48.193Z,99078.00
2022-11-18T01:05:28.505Z,99080.66
2022-11-18T01:06:02.518Z,99077.03
2022-11-18T01:06:36.239Z,99072.44
2022-11-18T01:07:16.541Z,99073.28
2022-11-18T01:07:50.589Z,99086.50
2022-11-18T01:08:24.275Z,99087.28
2022-11-18T01:09:04.486Z,99088.97
2022-11-18T01:09:38.542Z,99095.72
2022-11-18T01:10:12.310Z,99087.28
2022-11-18T01:10:54.465Z,99084.09
2022-11-18T01:11:46.943Z,99080.56
2022-11-18T01:12:40.137Z,99082.38
2022-11-18T01:13:27.459Z,99078.75
2022-11-18T01:14:01.501Z,99075.72
2022-11-18T01:14:35.187Z,99081.06
2022-11-18T01:15:16.438Z,99078.84
2022-11-18T01:16:09.509Z,99078.06
2022-11-18T01:16:43.166Z,99067.38
2022-11-18T01:17:30.442Z,99057.16
2022-11-18T01:18:04.188Z,99066.81
2022-11-18T01:18:51.427Z,99066.69
2022-11-18T01:19:26.496Z,99073.09
2022-11-18T01:20:13.450Z,99061.81
2022-11-18T01:20:47.674Z,99048.81
2022-11-18T01:21:34.517Z,99070.69
2022-11-18T01:22:08.209Z,99071.75
2022-11-18T01:22:55.448Z,99070.03
2022-11-18T01:23:29.561Z,99060.06
2022-11-18T01:24:17.448Z,99060.22
2022-11-18T01:24:51.142Z,99076.28
2022-11-18T01:25:39.485Z,99067.00
2022-11-18T01:26:16.152Z,99077.66
2022-11-18T01:26:56.495Z,99070.69
2022-11-18T01:27:30.509Z,99070.19
2022-11-18T01:28:04.837Z,99080.41
2022-11-18T01:28:45.462Z,99067.91
2022-11-18T01:29:19.728Z,99043.72
2022-11-18T01:29:54.137Z,99066.88
2022-11-18T01:30:34.603Z,99065.16
2022-11-18T01:31:13.577Z,99072.44
2022-11-18T01:32:16.935Z,99061.78
2022-11-18T01:32:47.503Z,99061.94
2022-11-18T01:33:21.473Z,99030.44
2022-11-18T01:33:55.112Z,99061.66
2022-11-18T01:34:36.440Z,99040.13
2022-11-18T01:35:10.511Z,99056.53
2022-11-18T01:35:44.982Z,99055.59
2022-11-18T01:36:34.397Z,99049.94
2022-11-18T01:37:08.679Z,99061.66
2022-11-18T01:37:43.115Z,99056.72
2022-11-18T01:38:23.472Z,99052.88
2022-11-18T01:38:57.525Z,99053.31
2022-11-18T01:39:31.484Z,99065.34
2022-11-18T01:40:14.466Z,99062.91
2022-11-18T01:40:48.477Z,99050.75
2022-11-18T01:41:25.183Z,99068.53
2022-11-18T01:42:05.441Z,99068.16
2022-11-18T01:42:39.572Z,99068.94
2022-11-18T01:43:18.252Z,99070.44
2022-11-18T01:44:07.465Z,99072.06
2022-11-18T01:45:28.508Z,99067.66
2022-11-18T01:46:02.132Z,99071.22
2022-11-18T01:46:42.426Z,99073.28
2022-11-18T01:47:16.502Z,99063.34
2022-11-18T01:48:17.074Z,99051.19
2022-11-18T01:49:13.456Z,99049.28
2022-11-18T01:49:47.436Z,99061.19
2022-11-18T01:50:22.509Z,99065.34
2022-11-18T01:51:08.394Z,99063.63
2022-11-18T01:51:54.499Z,99061.72
2022-11-18T01:52:29.990Z,99057.88
2022-11-18T01:53:21.417Z,99065.00
2022-11-18T01:54:30.619Z,99069.09
2022-11-18T01:55:12.439Z,99047.81
2022-11-18T01:56:02.432Z,99062.38
2022-11-18T01:56:50.473Z,99053.31
2022-11-18T01:57:38.464Z,99058.41
2022-11-18T01:58:19.015Z,99059.66
2022-11-18T01:59:31.625Z,99070.84
2022-11-18T02:00:07.682Z,99072.13
2022-11-18T02:00:54.424Z,99072.72
2022-11-18T02:01:28.154Z,99068.16
2022-11-18T02:02:21.396Z,99074.16
2022-11-18T02:02:55.181Z,99072.44
2022-11-18T02:03:42.460Z,99074.25
2022-11-18T02:04:16.442Z,99077.53
2022-11-18T02:04:59.557Z,99071.16
2022-11-18T02:05:33.809Z,99074.31
2022-11-18T02:06:10.166Z,99066.47
2022-11-18T02:06:52.397Z,99071.66
2022-11-18T02:07:32.551Z,99064.19
2022-11-18T02:08:13.417Z,99071.84
2022-11-18T02:08:53.590Z,99065.09
2022-11-18T02:09:33.364Z,99061.34
2022-11-18T02:10:22.513Z,99066.53
2022-11-18T02:10:56.071Z,99062.81
2022-11-18T02:12:00.534Z,99053.16
2022-11-18T02:12:34.969Z,99064.47
2022-11-18T02:13:22.378Z,99045.72
2022-11-18T02:13:56.757Z,99060.44
2022-11-18T02:14:50.421Z,99064.06
2022-11-18T02:16:08.418Z,99065.13
2022-11-18T02:17:28.431Z,99062.53
2022-11-18T02:18:26.442Z,99041.03
2022-11-18T02:19:10.553Z,99057.22
2022-11-18T02:19:53.478Z,99066.16
2022-11-18T02:20:38.502Z,99043.06
2022-11-18T02:22:04.473Z,99064.47
2022-11-18T02:23:26.476Z,99063.31
2022-11-18T02:24:35.462Z,99049.38
2022-11-18T02:25:59.409Z,99043.31
2022-11-18T02:27:25.442Z,99066.41
2022-11-18T02:29:06.727Z,99063.53
2022-11-18T02:30:14.386Z,99065.16
2022-11-18T02:31:07.468Z,99051.31
2022-11-18T02:32:17.431Z,99060.91
2022-11-18T02:33:03.494Z,99061.97
2022-11-18T02:34:06.568Z,99056.66
2022-11-18T02:34:51.596Z,99044.38
2022-11-18T02:36:00.448Z,99050.47
2022-11-18T02:36:54.419Z,99056.88
2022-11-18T02:37:39.950Z,99060.47
2022-11-18T02:38:39.449Z,99055.13
2022-11-18T02:39:20.498Z,99052.03
2022-11-18T02:40:18.010Z,99052.91
2022-11-18T02:41:06.385Z,99060.25
2022-11-18T02:41:41.384Z,99066.25
2022-11-18T02:42:15.749Z,99055.38
2022-11-18T02:43:02.378Z,99069.63
2022-11-18T02:43:48.417Z,99071.44
2022-11-18T02:44:24.884Z,99077.19
2022-11-18T02:45:19.344Z,99080.41
2022-11-18T02:45:58.485Z,99073.03
2022-11-18T02:46:51.361Z,99069.41
2022-11-18T02:47:27.564Z,99064.44
2022-11-18T02:48:21.357Z,99068.13
2022-11-18T02:49:01.371Z,99066.97
2022-11-18T02:49:48.373Z,99076.22
2022-11-18T02:50:32.404Z,99071.84
2022-11-18T02:51:14.473Z,99069.84
2022-11-18T02:51:56.388Z,99056.44
2022-11-18T02:52:39.386Z,99079.66
2022-11-18T02:53:22.332Z,99074.56
2022-11-18T02:54:14.445Z,99080.72
2022-11-18T02:54:48.954Z,99073.78
2022-11-18T02:55:37.326Z,99069.41
2022-11-18T02:56:11.221Z,99069.72
2022-11-18T02:57:00.367Z,99070.91
2022-11-18T02:57:34.685Z,99065.59
2022-11-18T02:58:22.366Z,99060.69
2022-11-18T02:58:56.033Z,99075.06
2022-11-18T02:59:36.349Z,99048.13
2022-11-18T03:00:11.502Z,99076.69
2022-11-18T03:00:45.221Z,99067.84
2022-11-18T03:01:37.507Z,99051.94
2022-11-18T03:02:11.437Z,99059.50
2022-11-18T03:02:49.006Z,99047.03
2022-11-18T03:03:40.400Z,99063.56
2022-11-18T03:04:14.424Z,99057.28
2022-11-18T03:04:56.408Z,99060.47
2022-11-18T03:05:55.402Z,99044.81
2022-11-18T03:06:52.369Z,99053.66
2022-11-18T03:07:46.370Z,99051.09
2022-11-18T03:08:39.313Z,99045.22
2022-11-18T03:09:34.419Z,99057.59
2022-11-18T03:10:21.363Z,99052.47
2022-11-18T03:11:24.442Z,99057.06
2022-11-18T03:12:48.389Z,99050.78
2022-11-18T03:13:31.396Z,99052.91
2022-11-18T03:14:37.367Z,99051.53
2022-11-18T03:15:39.381Z,99047.69
2022-11-18T03:17:14.391Z,99033.44
2022-11-18T03:18:38.410Z,99027.75
2022-11-18T03:20:09.366Z,99031.50
2022-11-18T03:21:00.354Z,99033.63
2022-11-18T03:21:52.520Z,99023.81
2022-11-18T03:22:57.376Z,99038.56
2022-11-18T03:23:47.436Z,99037.25
2022-11-18T03:24:39.358Z,99039.91
2022-11-18T03:25:19.369Z,99040.66
2022-11-18T03:26:24.385Z,99045.13
2022-11-18T03:27:07.364Z,99042.03
2022-11-18T03:28:17.280Z,99042.81
2022-11-18T03:29:10.390Z,99016.38
2022-11-18T03:30:13.332Z,99042.38
2022-11-18T03:30:56.480Z,99053.88
2022-11-18T03:32:00.317Z,99019.56
2022-11-18T03:32:36.371Z,99048.00
2022-11-18T03:33:31.299Z,99042.78
2022-11-18T03:34:18.329Z,99049.81
2022-11-18T03:35:27.350Z,99046.41
2022-11-18T03:36:01.367Z,99051.63
2022-11-18T03:36:57.173Z,99047.16
2022-11-18T03:37:41.313Z,99038.09
2022-11-18T03:38:43.289Z,99024.06
2022-11-18T03:39:38.293Z,99042.56
2022-11-18T03:40:36.371Z,99038.00
2022-11-18T03:41:32.365Z,99049.41
2022-11-18T03:42:42.373Z,99040.03
2022-11-18T03:43:40.301Z,99023.84
2022-11-18T03:44:39.297Z,99035.78
2022-11-18T03:45:40.399Z,99034.03
2022-11-18T03:46:40.279Z,99028.00
2022-11-18T03:47:41.287Z,99027.88
2022-11-18T03:48:30.362Z,99021.28
2022-11-18T03:49:14.674Z,99024.59
2022-11-18T03:50:05.291Z,99013.19
2022-11-18T03:50:54.398Z,99015.53
2022-11-18T03:51:45.331Z,98997.75
2022-11-18T03:52:30.449Z,99021.69
2022-11-18T03:53:11.321Z,99012.81
2022-11-18T03:54:00.421Z,99017.22
2022-11-18T03:54:43.277Z,99019.88
2022-11-18T03:55:30.345Z,99018.06
2022-11-18T03:56:24.344Z,99020.59
2022-11-18T03:57:29.330Z,99014.44
2022-11-18T03:58:27.384Z,99022.31
2022-11-18T03:59:29.357Z,99014.44
2022-11-18T04:00:26.245Z,99023.81
2022-11-18T04:01:29.497Z,99002.72
2022-11-18T04:02:49.324Z,99001.03
2022-11-18T04:03:43.310Z,99037.56
2022-11-18T04:04:39.310Z,99037.25
2022-11-18T04:05:34.298Z,99047.03
2022-11-18T04:06:59.394Z,99046.38
2022-11-18T04:08:13.322Z,99021.28
2022-11-18T04:09:04.298Z,99038.31
2022-11-18T04:09:45.380Z,99031.91
2022-11-18T04:11:13.346Z,99039.38
2022-11-18T04:12:04.649Z,99032.34
2022-11-18T04:13:06.755Z,99035.53
2022-11-18T04:13:44.286Z,99024.47
2022-11-18T04:14:27.311Z,99023.81
2022-11-18T04:15:08.385Z,99034.69
2022-11-18T04:15:49.297Z,99031.31
2022-11-18T04:16:29.510Z,99030.66
2022-11-18T04:17:21.309Z,99038.75
2022-11-18T04:18:01.353Z,99034.28
2022-11-18T04:18:41.302Z,99029.38
2022-11-18T04:19:21.631Z,99028.50
2022-11-18T04:20:03.329Z,98994.41
2022-11-18T04:20:44.377Z,99033.06
2022-11-18T04:21:24.263Z,99032.13
2022-11-18T04:22:04.352Z,99014.97
2022-11-18T04:22:44.279Z,99039.56
2022-11-18T04:23:24.341Z,99024.78
2022-11-18T04:24:04.244Z,99029.25
2022-11-18T04:24:44.278Z,99027.44
2022-11-18T04:25:24.311Z,99002.94
2022-11-18T04:26:04.416Z,99027.44
2022-11-18T04:26:44.308Z,99024.91
2022-11-18T04:27:24.308Z,99033.97
2022-11-18T04:28:04.282Z,99035.34
2022-11-18T04:28:44.472Z,99034.59
2022-11-18T04:29:25.252Z,99008.94
2022-11-18T04:30:05.326Z,99028.94
2022-11-18T04:30:45.298Z,99027.44
2022-11-18T04:31:25.286Z,99037.25
2022-11-18T04:32:07.233Z,99034.59
2022-11-18T04:32:47.313Z,99024.91
2022-11-18T04:33:27.213Z,99024.06
2022-11-18T04:34:07.238Z,99038.94
2022-11-18T04:34:47.512Z,99038.44
2022-11-18T04:35:41.271Z,99035.53
2022-11-18T04:36:21.309Z,99038.75
2022-11-18T04:37:01.285Z,99039.06
2022-11-18T04:37:41.281Z,99032.25
2022-11-18T04:38:22.374Z,99037.47
2022-11-18T04:39:02.252Z,99040.69
2022-11-18T04:39:42.309Z,99040.44
2022-11-18T04:40:23.218Z,99041.94
2022-11-18T04:41:03.297Z,99035.34
2022-11-18T04:42:02.317Z,99029.38
2022-11-18T04:42:42.245Z,99038.56
2022-11-18T04:43:23.261Z,99040.13
2022-11-18T04:44:13.014Z,99040.97
2022-11-18T04:44:53.260Z,99036.38
2022-11-18T04:45:33.301Z,99032.03
2022-11-18T04:46:13.301Z,99034.25
2022-11-18T04:46:53.282Z,99032.78
2022-11-18T04:47:33.276Z,99035.75
2022-11-18T04:48:13.256Z,99021.78
2022-11-18T04:48:53.234Z,99028.72
2022-11-18T04:49:34.263Z,99030.44
2022-11-18T04:50:15.203Z,99013.81
2022-11-18T04:50:55.353Z,99022.75
2022-11-18T04:51:35.290Z,99022.78
2022-11-18T04:52:15.329Z,99026.81
2022-11-18T04:52:56.224Z,98991.25
2022-11-18T04:53:36.322Z,99025.75
2022-11-18T04:54:17.271Z,99027.47
2022-11-18T04:54:57.367Z,99018.19
2022-11-18T04:55:37.384Z,99007.97
2022-11-18T04:56:17.513Z,99021.19
2022-11-18T04:56:58.209Z,99019.88
2022-11-18T04:57:38.316Z,99025.31
2022-11-18T04:58:18.257Z,99026.41
2022-11-18T04:58:58.248Z,99024.91
2022-11-18T04:59:39.237Z,99036.59
2022-11-18T05:00:19.306Z,99032.88
2022-11-18T05:00:59.309Z,99033.19
2022-11-18T05:01:39.300Z,99026.72
2022-11-18T05:02:20.250Z,99028.59
2022-11-18T05:03:00.381Z,99038.81
2022-11-18T05:03:40.232Z,99023.63
2022-11-18T05:04:30.778Z,99031.06
2022-11-18T05:05:12.206Z,99029.88
2022-11-18T05:05:52.294Z,99030.97
2022-11-18T05:06:32.236Z,99024.84
2022-11-18T05:07:13.291Z,99024.00
2022-11-18T05:07:53.297Z,99039.06
2022-11-18T05:08:33.313Z,99039.13
2022-11-18T05:09:13.262Z,99024.84
2022-11-18T05:09:53.218Z,99040.09
2022-11-18T05:10:33.233Z,99044.13
2022-11-18T05:11:33.100Z,99045.53
2022-11-18T05:12:44.200Z,99049.56
2022-11-18T05:13:24.271Z,99034.88
2022-11-18T05:14:04.237Z,99052.34
2022-11-18T05:14:49.634Z,99046.06
2022-11-18T05:15:27.269Z,99026.13
2022-11-18T05:16:14.220Z,99051.38
2022-11-18T05:16:48.226Z,99041.91
2022-11-18T05:17:35.179Z,99047.63
2022-11-18T05:18:09.255Z,99060.53
2022-11-18T05:18:56.178Z,99049.75
2022-11-18T05:19:30.784Z,99042.56
2022-11-18T05:20:12.225Z,99057.13
2022-11-18T05:20:52.374Z,99052.84
2022-11-18T05:21:33.185Z,99050.84
2022-11-18T05:22:14.289Z,99056.91
2022-11-18T05:22:54.177Z,99051.44
2022-11-18T05:23:34.308Z,99054.03
2022-11-18T05:24:14.245Z,99042.00
2022-11-18T05:24:54.298Z,99054.66
2022-11-18T05:25:34.232Z,99047.81
2022-11-18T05:26:18.276Z,99044.38
2022-11-18T05:26:59.172Z,99055.53
2022-11-18T05:27:39.294Z,99050.19
2022-11-18T05:28:19.180Z,99054.03
2022-11-18T05:28:59.298Z,99054.47
2022-11-18T05:29:40.233Z,99060.00
2022-11-18T05:30:21.538Z,99043.59
2022-11-18T05:31:02.184Z,99041.91
2022-11-18T05:31:42.329Z,99062.16
2022-11-18T05:32:22.252Z,99053.72
2022-11-18T05:33:02.185Z,99062.56
2022-11-18T05:33:43.197Z,99060.81
2022-11-18T05:34:37.307Z,99069.56
2022-11-18T05:35:31.245Z,99053.38
2022-11-18T05:36:22.193Z,99056.75
2022-11-18T05:36:56.322Z,99055.38
2022-11-18T05:37:43.232Z,99064.34
2022-11-18T05:38:17.282Z,99064.25
2022-11-18T05:39:07.222Z,99058.28
2022-11-18T05:39:41.292Z,99065.69
2022-11-18T05:40:28.183Z,99068.69
2022-11-18T05:41:02.315Z,99066.44
2022-11-18T05:42:01.268Z,99066.78
2022-11-18T05:43:00.036Z,99072.53
2022-11-18T05:43:41.195Z,99065.91
2022-11-18T05:44:21.197Z,99071.22
2022-11-18T05:45:01.173Z,99073.78
2022-11-18T05:45:41.213Z,99072.88
2022-11-18T05:46:21.166Z,99068.66
2022-11-18T05:47:08.180Z,99089.94
2022-11-18T05:48:07.168Z,99073.13
2022-11-18T05:49:01.262Z,99084.22
2022-11-18T05:49:55.241Z,99071.63
2022-11-18T05:50:51.173Z,99091.66
2022-11-18T05:51:45.176Z,99095.47
2022-11-18T05:52:32.261Z,99093.97
2022-11-18T05:53:06.281Z,99095.47
2022-11-18T05:53:55.224Z,99084.41
2022-11-18T05:54:29.209Z,99097.69
2022-11-18T05:55:18.218Z,99091.59
2022-11-18T05:56:20.275Z,99096.28
2022-11-18T05:57:07.212Z,99101.69
2022-11-18T05:57:48.180Z,99099.44
2022-11-18T05:58:42.206Z,99091.13
2022-11-18T05:59:36.195Z,99109.03
2022-11-18T06:00:31.174Z,99111.03
2022-11-18T06:01:29.196Z,99111.78
2022-11-18T06:02:37.166Z,99109.78
2022-11-18T06:03:31.420Z,99094.13
2022-11-18T06:04:38.243Z,99111.03
2022-11-18T06:05:19.159Z,99117.69
2022-11-18T06:06:03.204Z,99111.03
2022-11-18T06:06:43.270Z,99090.00
2022-11-18T06:07:48.283Z,99105.53
2022-11-18T06:08:31.301Z,99117.09
2022-11-18T06:09:13.273Z,99107.69
2022-11-18T06:10:00.848Z,99117.81
2022-11-18T06:10:45.312Z,99117.69
2022-11-18T06:11:26.149Z,99119.59
2022-11-18T06:12:08.246Z,99125.78
2022-11-18T06:12:51.210Z,99119.22
2022-11-18T06:13:56.183Z,99115.34
2022-11-18T06:15:04.119Z,99115.44
2022-11-18T06:15:59.126Z,99118.84
2022-11-18T06:16:56.349Z,99111.25
2022-11-18T06:18:05.178Z,99099.97
2022-11-18T06:18:59.211Z,99119.06
2022-11-18T06:19:53.132Z,99127.22
2022-11-18T06:20:49.164Z,99136.16
2022-11-18T06:21:44.126Z,99131.38
2022-11-18T06:22:42.140Z,99128.75
2022-11-18T06:23:26.193Z,99130.94
2022-11-18T06:24:07.234Z,99107.84
2022-11-18T06:24:48.130Z,99125.00
2022-11-18T06:25:29.173Z,99125.16
2022-11-18T06:26:11.912Z,99115.22
2022-11-18T06:26:53.133Z,99130.72
2022-11-18T06:27:33.282Z,99132.81
2022-11-18T06:28:15.137Z,99117.13
2022-11-18T06:28:55.205Z,99130.19
2022-11-18T06:29:36.158Z,99130.75
2022-11-18T06:30:17.264Z,99108.38
2022-11-18T06:30:57.116Z,99128.84
2022-11-18T06:31:37.148Z,99129.28
2022-11-18T06:32:18.180Z,99133.75
2022-11-18T06:32:59.196Z,99132.91
2022-11-18T06:33:39.128Z,99128.22
2022-11-18T06:34:19.340Z,99135.00
2022-11-18T06:34:59.153Z,99123.13
2022-11-18T06:35:39.178Z,99130.13
2022-11-18T06:36:19.082Z,99133.56
2022-11-18T06:36:59.255Z,99130.34
2022-11-18T06:37:40.102Z,99138.69
2022-11-18T06:38:20.272Z,99131.47
2022-11-18T06:39:00.110Z,99144.25
2022-11-18T06:39:40.195Z,99149.41
2022-11-18T06:40:20.161Z,99142.44
2022-11-18T06:41:00.197Z,99152.13
2022-11-18T06:41:41.110Z,99144.25
2022-11-18T06:42:40.518Z,99144.06
2022-11-18T06:43:40.078Z,99142.31
2022-11-18T06:44:21.254Z,99144.38
2022-11-18T06:45:01.177Z,99136.56
2022-11-18T06:45:41.188Z,99139.63
2022-11-18T06:46:38.608Z,99150.44
2022-11-18T06:47:12.893Z,99147.22
2022-11-18T06:47:54.089Z,99145.69
2022-11-18T06:48:28.138Z,99142.59
2022-11-18T06:49:02.770Z,99132.06
2022-11-18T06:49:43.117Z,99156.34
2022-11-18T06:50:17.185Z,99144.22
2022-11-18T06:50:57.170Z,99155.09
2022-11-18T06:51:39.027Z,99138.22
2022-11-18T06:52:19.130Z,99156.34
2022-11-18T06:53:00.137Z,99126.06
2022-11-18T06:53:42.170Z,99138.19
2022-11-18T06:54:22.293Z,99151.81
2022-11-18T06:55:02.068Z,99151.94
2022-11-18T06:55:42.145Z,99156.41
2022-11-18T06:56:25.073Z,99145.56
2022-11-18T06:57:06.156Z,99152.88
2022-11-18T06:57:46.121Z,99123.38
2022-11-18T06:58:26.114Z,99153.56
2022-11-18T06:59:06.152Z,99165.69
2022-11-18T06:59:46.106Z,99160.34
2022-11-18T07:00:26.062Z,99155.34
2022-11-18T07:01:22.308Z,99161.47
2022-11-18T07:02:03.117Z,99166.81
2022-11-18T07:02:43.215Z,99155.19
2022-11-18T07:03:23.056Z,99156.41
2022-11-18T07:04:06.251Z,99159.16
2022-11-18T07:04:47.167Z,99162.59
2022-11-18T07:05:27.089Z,99150.09
2022-11-18T07:06:07.120Z,99154.63
2022-11-18T07:06:48.081Z,99150.78
2022-11-18T07:07:28.177Z,99159.31
2022-11-18T07:08:08.117Z,99152.75
2022-11-18T07:08:49.137Z,99152.53
2022-11-18T07:09:29.165Z,99131.75
2022-11-18T07:10:09.106Z,99151.94
2022-11-18T07:10:49.172Z,99138.09
2022-11-18T07:11:32.094Z,99147.03
2022-11-18T07:12:12.120Z,99161.19
2022-11-18T07:12:52.084Z,99146.06
2022-11-18T07:13:32.410Z,99162.78
2022-11-18T07:14:14.046Z,99148.72
2022-11-18T07:14:54.137Z,99166.41
2022-11-18T07:15:34.048Z,99157.13
2022-11-18T07:16:20.327Z,99160.41
2022-11-18T07:17:00.084Z,99158.31
2022-11-18T07:17:40.108Z,99150.00
2022-11-18T07:18:20.064Z,99162.47
2022-11-18T07:19:02.101Z,99172.72
2022-11-18T07:19:42.061Z,99162.59
2022-11-18T07:20:22.126Z,99165.34
2022-11-18T07:21:02.030Z,99169.06
2022-11-18T07:21:43.361Z,99172.63
2022-11-18T07:22:23.173Z,99176.03
2022-11-18T07:23:03.152Z,99171.47
2022-11-18T07:23:43.093Z,99177.34
2022-11-18T07:24:24.150Z,99164.34
2022-11-18T07:25:04.081Z,99168.41
2022-11-18T07:25:45.481Z,99166.94
2022-11-18T07:26:26.090Z,99163.03
2022-11-18T07:27:06.185Z,99178.63
2022-11-18T07:27:47.133Z,99169.22
2022-11-18T07:28:27.131Z,99175.97
2022-11-18T07:29:07.126Z,99176.69
2022-11-18T07:29:47.114Z,99168.53
2022-11-18T07:30:28.106Z,99180.31
2022-11-18T07:31:13.252Z,99181.69
2022-11-18T07:31:53.033Z,99174.88
2022-11-18T07:32:33.438Z,99182.13
2022-11-18T07:33:14.056Z,99171.88
2022-11-18T07:33:55.116Z,99179.84
2022-11-18T07:34:35.066Z,99165.41
2022-11-18T07:35:18.374Z,99175.00
2022-11-18T07:35:58.045Z,99175.97
2022-11-18T07:36:38.070Z,99182.06
2022-11-18T07:37:18.124Z,99172.03
2022-11-18T07:37:58.108Z,99186.28
2022-11-18T07:38:39.056Z,99177.34
2022-11-18T07:39:19.431Z,99177.03
2022-11-18T07:40:00.138Z,99177.69
2022-11-18T07:40:40.176Z,99181.97
2022-11-18T07:41:24.227Z,99166.69
2022-11-18T07:42:04.058Z,99183.78
2022-11-18T07:42:48.997Z,99181.59
2022-11-18T07:43:29.115Z,99180.66
2022-11-18T07:44:11.070Z,99186.91
2022-11-18T07:44:52.090Z,99190.53
2022-11-18T07:45:32.077Z,99181.28
2022-11-18T07:46:52.194Z,99182.06
2022-11-18T07:47:32.095Z,99184.22
2022-11-18T07:48:12.039Z,99188.69
2022-11-18T07:48:54.997Z,99178.47
2022-11-18T07:49:36.034Z,99194.25
2022-11-18T07:50:16.085Z,99181.88
2022-11-18T07:50:57.046Z,99183.38
2022-11-18T07:51:35.147Z,99188.59
2022-11-18T07:52:08.806Z,99180.63
2022-11-18T07:52:49.090Z,99179.94
2022-11-18T07:53:23.061Z,99181.69
2022-11-18T07:53:56.961Z,99183.38
2022-11-18T07:54:38.103Z,99184.41
2022-11-18T07:55:12.148Z,99184.22
2022-11-18T07:55:45.661Z,99181.44
2022-11-18T07:56:27.065Z,99174.41
2022-11-18T07:57:01.192Z,99190.81
2022-11-18T07:57:34.705Z,99173.03
2022-11-18T07:58:14.993Z,99178.63
2022-11-18T07:58:50.104Z,99185.34
2022-11-18T07:59:24.773Z,99169.13
2022-11-18T08:00:06.069Z,99189.69
2022-11-18T08:00:40.088Z,99174.47
2022-11-18T08:01:22.539Z,99175.97
2022-11-18T08:02:04.098Z,99191.34
2022-11-18T08:02:38.065Z,99182.16
2022-11-18T08:03:14.609Z,99186.44
2022-11-18T08:03:56.045Z,99185.59
2022-11-18T08:04:30.084Z,99176.09
2022-11-18T08:05:04.452Z,99177.16
2022-11-18T08:05:44.053Z,99175.13
2022-11-18T08:06:20.186Z,99174.94
2022-11-18T08:06:53.781Z,99175.53
2022-11-18T08:07:34.115Z,99185.34
2022-11-18T08:08:08.089Z,99173.22
2022-11-18T08:08:41.940Z,99166.69
2022-11-18T08:09:23.009Z,99177.06
2022-11-18T08:09:57.192Z,99171.84
2022-11-18T08:10:30.965Z,99170.88
2022-11-18T08:11:18.984Z,99173.22
2022-11-18T08:11:56.234Z,99171.72
2022-11-18T08:12:30.758Z,99173.66
2022-11-18T08:13:11.018Z,99179.84
2022-11-18T08:13:46.110Z,99164.25
2022-11-18T08:14:22.777Z,99172.69
2022-11-18T08:15:04.020Z,99169.38
2022-11-18T08:15:38.190Z,99168.75
2022-11-18T08:16:17.636Z,99170.22
2022-11-18T08:16:58.082Z,99172.38
2022-11-18T08:17:32.050Z,99175.97
2022-11-18T08:18:08.495Z,99162.44
2022-11-18T08:18:53.025Z,99171.31
2022-11-18T08:19:27.204Z,99165.78
2022-11-18T08:20:00.725Z,99156.81
2022-11-18T08:20:42.005Z,99173.88
2022-11-18T08:21:17.552Z,99168.75
2022-11-18T08:21:51.805Z,99163.97
2022-11-18T08:22:32.052Z,99165.84
2022-11-18T08:23:06.249Z,99175.13
2022-11-18T08:23:42.281Z,99158.69
2022-11-18T08:24:23.005Z,99174.25
2022-11-18T08:24:57.277Z,99165.13
2022-11-18T08:25:30.733Z,99169.59
2022-11-18T08:26:17.978Z,99169.59
2022-11-18T08:26:52.331Z,99165.31
2022-11-18T08:27:26.709Z,99159.78
2022-11-18T08:28:08.116Z,99176.81
2022-11-18T08:28:42.643Z,99161.25
2022-11-18T08:29:21.820Z,99158.09
2022-11-18T08:30:05.066Z,99170.53
2022-11-18T08:30:41.024Z,99164.22
2022-11-18T08:31:14.641Z,99172.56
2022-11-18T08:31:54.974Z,99172.34
2022-11-18T08:32:29.026Z,99158.81
2022-11-18T08:33:03.022Z,99169.16
2022-11-18T08:33:42.952Z,99172.38
2022-11-18T08:34:17.010Z,99169.78
2022-11-18T08:34:51.691Z,99172.47
2022-11-18T08:35:36.093Z,99171.91
2022-11-18T08:36:17.109Z,99161.50
2022-11-18T08:36:51.677Z,99165.13
2022-11-18T08:37:32.012Z,99165.13
2022-11-18T08:38:06.027Z,99171.41
2022-11-18T08:38:53.040Z,99166.81